createdAt,value
2022-10-25T00:02:17.515Z,85.19
2022-10-25T00:04:46.403Z,85.26
2022-10-25T00:07:14.174Z,85.53
2022-10-25T00:09:42.460Z,85.46
2022-10-25T00:12:10.199Z,85.13
2022-10-25T00:14:37.821Z,84.83
2022-10-25T00:17:05.550Z,85.18
2022-10-25T00:19:34.138Z,85.62
2022-10-25T00:22:01.746Z,85.99
2022-10-25T00:24:29.353Z,85.88
2022-10-25T00:26:57.102Z,85.83
2022-10-25T00:29:24.863Z,85.50
2022-10-25T00:31:52.440Z,85.70
2022-10-25T00:34:20.077Z,85.37
2022-10-25T00:36:47.673Z,85.45
2022-10-25T00:39:15.318Z,85.51
2022-10-25T00:41:43.037Z,85.70
2022-10-25T00:44:38.528Z,85.60
2022-10-25T00:47:21.301Z,85.56
2022-10-25T00:50:01.429Z,85.52
2022-10-25T00:52:34.907Z,85.39
2022-10-25T00:55:05.159Z,85.57
2022-10-25T00:57:37.282Z,85.49
2022-10-25T01:00:06.685Z,85.49
2022-10-25T01:02:34.846Z,85.40
2022-10-25T01:05:03.353Z,85.32
2022-10-25T01:07:31.221Z,85.43
2022-10-25T01:09:58.999Z,85.44
2022-10-25T01:12:26.689Z,85.85
2022-10-25T01:14:55.157Z,86.38
2022-10-25T01:17:47.327Z,86.86
2022-10-25T01:20:36.352Z,86.89
2022-10-25T01:23:25.747Z,86.88
2022-10-25T01:26:03.628Z,86.46
2022-10-25T01:28:59.063Z,86.54
2022-10-25T01:31:48.490Z,86.90
2022-10-25T01:34:29.427Z,87.21
2022-10-25T01:37:22.231Z,87.23
2022-10-25T01:40:17.509Z,87.46
2022-10-25T01:42:53.198Z,87.50
2022-10-25T01:45:29.603Z,87.68
2022-10-25T01:48:07.936Z,88.09
2022-10-25T01:50:41.399Z,88.23
2022-10-25T01:53:10.401Z,88.35
2022-10-25T01:55:53.649Z,88.24
2022-10-25T01:58:44.166Z,88.09
2022-10-25T02:01:37.865Z,88.34
2022-10-25T02:04:15.245Z,89.37
2022-10-25T02:07:07.981Z,88.58
2022-10-25T02:12:45.900Z,88.79
2022-10-25T02:15:22.070Z,88.87
2022-10-25T02:17:57.035Z,88.52
2022-10-25T02:20:26.304Z,88.37
2022-10-25T02:22:55.487Z,88.57
2022-10-25T02:25:23.253Z,88.70
2022-10-25T02:27:53.518Z,88.65
2022-10-25T02:30:21.355Z,88.33
2022-10-25T02:32:50.370Z,88.43
2022-10-25T02:35:18.982Z,88.52
2022-10-25T02:37:46.898Z,88.71
2022-10-25T02:40:14.934Z,88.90
2022-10-25T02:42:42.569Z,88.62
2022-10-25T02:45:10.713Z,88.38
2022-10-25T02:47:38.394Z,87.89
2022-10-25T02:50:06.193Z,87.90
2022-10-25T02:52:33.864Z,87.88
2022-10-25T02:55:01.722Z,88.06
2022-10-25T02:57:34.666Z,87.99
2022-10-25T03:00:04.079Z,87.67
2022-10-25T03:02:31.777Z,87.44
2022-10-25T03:04:59.392Z,87.53
2022-10-25T03:07:27.047Z,87.65
2022-10-25T03:09:54.667Z,87.83
2022-10-25T03:12:22.304Z,87.68
2022-10-25T03:14:49.906Z,87.59
2022-10-25T03:17:17.590Z,87.57
2022-10-25T03:19:45.157Z,87.57
2022-10-25T03:22:12.820Z,87.87
2022-10-25T03:24:40.453Z,88.05
2022-10-25T03:27:08.125Z,88.12
2022-10-25T03:29:35.803Z,88.36
2022-10-25T03:32:05.502Z,88.31
2022-10-25T03:34:33.701Z,88.45
2022-10-25T03:37:01.764Z,88.40
2022-10-25T03:39:29.464Z,88.54
2022-10-25T03:41:57.069Z,88.23
2022-10-25T03:44:24.961Z,87.73
2022-10-25T03:46:52.660Z,87.51
2022-10-25T03:49:20.439Z,87.30
2022-10-25T03:51:51.107Z,87.39
2022-10-25T03:54:24.325Z,87.52
2022-10-25T03:56:54.515Z,87.77
2022-10-25T03:59:22.190Z,87.61
2022-10-25T04:01:49.959Z,87.39
2022-10-25T04:04:17.725Z,87.17
2022-10-25T04:06:45.839Z,87.25
2022-10-25T04:09:13.704Z,87.43
2022-10-25T04:11:41.287Z,87.61
2022-10-25T04:14:08.896Z,87.54
2022-10-25T04:16:36.541Z,87.72
2022-10-25T04:19:04.237Z,88.06
2022-10-25T04:21:31.834Z,88.17
2022-10-25T04:24:01.962Z,88.36
2022-10-25T04:26:34.868Z,88.34
2022-10-25T04:29:04.506Z,88.34
2022-10-25T04:31:33.377Z,88.15
2022-10-25T04:34:00.995Z,87.98
2022-10-25T04:36:30.056Z,87.84
2022-10-25T04:38:57.664Z,87.99
2022-10-25T04:41:26.430Z,88.11
2022-10-25T04:43:54.091Z,88.02
2022-10-25T04:46:21.773Z,88.11
2022-10-25T04:48:49.471Z,87.95
2022-10-25T04:51:17.097Z,88.07
2022-10-25T04:53:44.721Z,88.28
2022-10-25T04:56:14.530Z,88.50
2022-10-25T04:58:42.215Z,88.46
2022-10-25T05:01:15.648Z,88.56
2022-10-25T05:03:43.584Z,88.48
2022-10-25T05:06:20.512Z,88.58
2022-10-25T05:08:50.229Z,88.77
2022-10-25T05:11:20.850Z,88.88
2022-10-25T05:13:49.067Z,88.78
2022-10-25T05:16:23.693Z,88.53
2022-10-25T05:18:54.486Z,88.43
2022-10-25T05:24:00.502Z,88.84
2022-10-25T05:26:31.041Z,88.99
2022-10-25T05:28:59.277Z,88.83
2022-10-25T05:31:29.574Z,88.78
2022-10-25T05:33:59.671Z,88.42
2022-10-25T05:36:32.864Z,88.39
2022-10-25T05:39:01.307Z,88.41
2022-10-25T05:41:32.078Z,88.40
2022-10-25T05:44:02.447Z,88.21
2022-10-25T05:46:30.059Z,88.22
2022-10-25T05:48:59.474Z,87.95
2022-10-25T05:51:34.621Z,88.03
2022-10-25T05:54:14.880Z,88.27
2022-10-25T05:56:43.149Z,88.47
2022-10-25T05:59:15.192Z,88.33
2022-10-25T06:01:45.530Z,88.23
2022-10-25T06:04:14.485Z,88.09
2022-10-25T06:06:43.983Z,88.46
2022-10-25T06:09:13.094Z,88.74
2022-10-25T06:11:41.068Z,88.70
2022-10-25T06:14:10.209Z,88.50
2022-10-25T06:16:38.766Z,88.13
2022-10-25T06:19:06.944Z,87.98
2022-10-25T06:21:34.655Z,88.08
2022-10-25T06:24:02.639Z,88.28
2022-10-25T06:26:31.448Z,88.43
2022-10-25T06:29:01.578Z,88.27
2022-10-25T06:31:30.541Z,88.01
2022-10-25T06:34:02.452Z,87.84
2022-10-25T06:36:31.461Z,87.86
2022-10-25T06:39:05.872Z,88.08
2022-10-25T06:41:37.084Z,88.00
2022-10-25T06:44:07.130Z,87.73
2022-10-25T06:47:11.777Z,87.65
2022-10-25T06:49:26.526Z,87.04
2022-10-25T06:51:55.587Z,87.16
2022-10-25T06:54:25.448Z,87.30
2022-10-25T06:56:53.081Z,86.98
2022-10-25T06:59:20.789Z,86.48
2022-10-25T07:01:48.611Z,86.09
2022-10-25T07:04:16.572Z,85.14
2022-10-25T07:06:44.159Z,85.24
2022-10-25T07:09:13.190Z,85.36
2022-10-25T07:11:41.307Z,85.31
2022-10-25T07:14:09.443Z,84.95
2022-10-25T07:16:37.139Z,84.18
2022-10-25T07:19:05.346Z,83.54
2022-10-25T07:21:34.433Z,83.22
2022-10-25T07:24:02.176Z,82.55
2022-10-25T07:26:33.211Z,83.00
2022-10-25T07:29:03.103Z,82.45
2022-10-25T07:31:36.041Z,81.31
2022-10-25T07:34:05.400Z,80.35
2022-10-25T07:36:33.723Z,79.87
2022-10-25T07:39:01.438Z,79.07
2022-10-25T07:41:29.265Z,78.47
2022-10-25T07:43:57.045Z,77.41
2022-10-25T07:46:25.183Z,76.02
2022-10-25T07:48:53.094Z,76.93
2022-10-25T07:51:20.870Z,76.68
2022-10-25T07:53:48.622Z,77.67
2022-10-25T07:56:23.078Z,77.12
2022-10-25T07:58:52.331Z,78.40
2022-10-25T08:01:23.598Z,78.03
2022-10-25T08:03:52.817Z,76.80
2022-10-25T08:06:21.411Z,77.49
2022-10-25T08:08:49.148Z,78.11
2022-10-25T08:11:16.848Z,77.96
2022-10-25T08:13:44.449Z,77.16
2022-10-25T08:16:12.101Z,77.69
2022-10-25T08:18:39.704Z,77.22
2022-10-25T08:21:07.410Z,76.01
2022-10-25T08:23:35.205Z,76.04
2022-10-25T08:26:03.545Z,76.34
2022-10-25T08:28:31.783Z,76.61
2022-10-25T08:31:01.448Z,77.01
2022-10-25T08:33:30.259Z,76.91
2022-10-25T08:36:04.277Z,77.87
2022-10-25T08:38:31.884Z,77.82
2022-10-25T08:41:06.761Z,77.51
2022-10-25T08:44:12.028Z,77.82
2022-10-25T08:47:05.913Z,77.78
2022-10-25T08:49:41.675Z,77.97
2022-10-25T08:52:32.442Z,78.15
2022-10-25T08:55:05.542Z,78.15
2022-10-25T08:57:40.642Z,78.84
2022-10-25T09:00:22.696Z,78.92
2022-10-25T09:02:55.877Z,79.09
2022-10-25T09:05:56.492Z,78.23
2022-10-25T09:08:34.549Z,76.97
2022-10-25T09:11:33.415Z,74.54
2022-10-25T09:14:12.654Z,73.65
2022-10-25T09:16:43.341Z,73.39
2022-10-25T09:19:39.001Z,73.72
2022-10-25T09:22:17.067Z,72.01
2022-10-25T09:25:01.166Z,72.45
2022-10-25T09:27:35.075Z,71.42
2022-10-25T09:30:09.863Z,70.65
2022-10-25T09:32:51.265Z,70.71
2022-10-25T09:35:28.194Z,70.58
2022-10-25T09:38:02.097Z,70.61
2022-10-25T09:40:49.115Z,70.29
2022-10-25T09:43:23.234Z,71.32
2022-10-25T09:45:54.671Z,70.49
2022-10-25T09:48:31.642Z,70.57
2022-10-25T09:51:17.927Z,69.76
2022-10-25T09:53:46.602Z,70.39
2022-10-25T09:56:14.274Z,70.87
2022-10-25T09:58:47.046Z,71.06
2022-10-25T10:01:19.502Z,72.12
2022-10-25T10:03:50.867Z,71.68
2022-10-25T10:06:26.751Z,70.84
2022-10-25T10:09:02.516Z,69.57
2022-10-25T10:11:32.238Z,67.95
2022-10-25T10:14:12.929Z,67.46
2022-10-25T10:16:53.138Z,65.52
2022-10-25T10:19:23.486Z,66.33
2022-10-25T10:21:58.421Z,66.14
2022-10-25T10:24:32.408Z,64.49
2022-10-25T10:27:02.726Z,64.54
2022-10-25T10:29:35.005Z,64.70
2022-10-25T10:32:21.884Z,64.75
2022-10-25T10:34:56.356Z,65.73
2022-10-25T10:37:26.330Z,65.84
2022-10-25T10:40:23.208Z,65.11
2022-10-25T10:42:51.629Z,65.76
2022-10-25T10:45:20.665Z,66.27
2022-10-25T10:47:51.154Z,66.15
2022-10-25T10:50:22.210Z,66.48
2022-10-25T10:52:59.414Z,66.30
2022-10-25T10:55:29.913Z,66.99
2022-10-25T10:58:22.268Z,67.22
2022-10-25T11:00:55.655Z,67.52
2022-10-25T11:03:53.417Z,68.24
2022-10-25T11:06:34.373Z,67.76
2022-10-25T11:09:17.107Z,67.05
2022-10-25T11:11:45.801Z,67.06
2022-10-25T11:14:19.886Z,66.93
2022-10-25T11:17:10.915Z,66.08
2022-10-25T11:19:57.495Z,65.92
2022-10-25T11:26:10.833Z,65.76
2022-10-25T11:28:59.479Z,66.06
2022-10-25T11:32:12.129Z,66.01
2022-10-25T11:34:53.842Z,66.33
2022-10-25T11:37:47.888Z,65.83
2022-10-25T11:40:20.249Z,65.65
2022-10-25T11:43:00.011Z,65.42
2022-10-25T11:45:48.400Z,66.10
2022-10-25T11:48:53.516Z,65.49
2022-10-25T11:51:26.926Z,66.01
2022-10-25T11:54:36.181Z,65.85
2022-10-25T11:57:27.939Z,66.07
2022-10-25T12:00:15.293Z,66.55
2022-10-25T12:02:54.936Z,67.14
2022-10-25T12:05:29.521Z,67.50
2022-10-25T12:08:07.325Z,67.87
2022-10-25T12:10:39.749Z,68.26
2022-10-25T12:13:30.710Z,69.04
2022-10-25T12:15:59.843Z,69.34
2022-10-25T12:19:03.033Z,69.13
2022-10-25T12:21:42.026Z,68.96
2022-10-25T12:24:18.469Z,69.07
2022-10-25T12:26:48.998Z,69.12
2022-10-25T12:29:22.270Z,69.64
2022-10-25T12:31:58.855Z,69.42
2022-10-25T12:34:37.996Z,69.57
2022-10-25T12:37:18.024Z,69.60
2022-10-25T12:39:46.746Z,69.93
2022-10-25T12:42:25.131Z,69.95
2022-10-25T12:45:28.778Z,70.50
2022-10-25T12:48:17.485Z,70.83
2022-10-25T12:50:45.105Z,70.85
2022-10-25T12:53:24.938Z,70.96
2022-10-25T12:55:58.542Z,70.47
2022-10-25T12:58:38.657Z,70.73
2022-10-25T13:01:44.099Z,70.52
2022-10-25T13:04:23.948Z,71.11
2022-10-25T13:06:52.981Z,70.79
2022-10-25T13:09:26.834Z,70.99
2022-10-25T13:12:05.893Z,71.79
2022-10-25T13:14:50.783Z,72.73
2022-10-25T13:17:18.417Z,73.84
2022-10-25T13:22:46.471Z,73.21
2022-10-25T13:25:14.101Z,73.48
2022-10-25T13:28:16.013Z,73.79
2022-10-25T13:30:44.702Z,73.61
2022-10-25T13:33:19.330Z,73.98
2022-10-25T13:35:49.702Z,73.47
2022-10-25T13:38:23.100Z,73.39
2022-10-25T13:41:22.916Z,74.26
2022-10-25T13:44:19.400Z,74.60
2022-10-25T13:46:48.227Z,75.36
2022-10-25T13:49:28.233Z,75.22
2022-10-25T13:52:24.993Z,74.94
2022-10-25T13:54:57.031Z,74.88
2022-10-25T13:57:50.703Z,74.68
2022-10-25T14:00:26.453Z,75.45
2022-10-25T14:03:20.642Z,75.73
2022-10-25T14:05:54.273Z,76.02
2022-10-25T14:08:30.076Z,76.00
2022-10-25T14:11:35.419Z,75.82
2022-10-25T14:14:12.169Z,75.78
2022-10-25T14:17:11.587Z,76.22
2022-10-25T14:19:43.868Z,76.09
2022-10-25T14:22:23.031Z,76.35
2022-10-25T14:24:53.892Z,76.73
2022-10-25T14:27:39.388Z,76.96
2022-10-25T14:30:25.546Z,76.78
2022-10-25T14:32:56.243Z,76.62
2022-10-25T14:35:29.133Z,77.07
2022-10-25T14:37:57.186Z,77.35
2022-10-25T14:40:31.021Z,77.07
2022-10-25T14:43:22.310Z,77.10
2022-10-25T14:46:17.669Z,77.49
2022-10-25T14:48:47.721Z,77.71
2022-10-25T14:51:19.509Z,77.60
2022-10-25T14:54:06.882Z,77.82
2022-10-25T14:56:40.281Z,77.86
2022-10-25T14:59:18.876Z,78.34
2022-10-25T15:01:56.029Z,78.22
2022-10-25T15:04:33.258Z,78.27
2022-10-25T15:07:02.516Z,78.63
2022-10-25T15:09:46.658Z,78.41
2022-10-25T15:12:18.013Z,78.37
2022-10-25T15:14:48.180Z,78.87
2022-10-25T15:17:24.090Z,78.59
2022-10-25T15:20:03.222Z,78.74
2022-10-25T15:22:40.066Z,78.81
2022-10-25T15:25:23.086Z,79.19
2022-10-25T15:27:54.582Z,79.31
2022-10-25T15:30:39.728Z,79.32
2022-10-25T15:33:15.400Z,79.49
2022-10-25T15:35:55.351Z,79.24
2022-10-25T15:38:37.062Z,79.35
2022-10-25T15:41:14.853Z,79.78
2022-10-25T15:43:42.531Z,79.77
2022-10-25T15:46:24.688Z,79.86
2022-10-25T15:48:53.174Z,79.79
2022-10-25T15:51:20.914Z,79.81
2022-10-25T15:53:48.549Z,79.71
2022-10-25T15:56:19.425Z,79.92
2022-10-25T15:58:48.156Z,80.21
2022-10-25T16:01:16.139Z,80.38
2022-10-25T16:03:43.939Z,80.35
2022-10-25T16:06:14.130Z,80.37
2022-10-25T16:08:42.408Z,80.33
2022-10-25T16:11:15.462Z,80.21
2022-10-25T16:13:46.161Z,80.30
2022-10-25T16:16:42.285Z,80.42
2022-10-25T16:19:14.911Z,80.45
2022-10-25T16:21:43.286Z,80.66
2022-10-25T16:24:12.024Z,80.52
2022-10-25T16:26:46.099Z,80.33
2022-10-25T16:29:24.678Z,80.58
2022-10-25T16:31:53.842Z,80.59
2022-10-25T16:34:21.832Z,80.74
2022-10-25T16:36:50.598Z,80.83
2022-10-25T16:39:18.413Z,80.75
2022-10-25T16:41:47.596Z,80.79
2022-10-25T16:44:19.203Z,80.90
2022-10-25T16:46:47.191Z,80.70
2022-10-25T16:49:15.342Z,80.80
2022-10-25T16:51:44.414Z,81.36
2022-10-25T16:54:12.548Z,81.72
2022-10-25T16:56:40.136Z,82.15
2022-10-25T16:59:07.728Z,82.22
2022-10-25T17:01:40.050Z,81.94
2022-10-25T17:04:09.730Z,82.22
2022-10-25T17:06:41.807Z,82.43
2022-10-25T17:09:11.172Z,82.76
2022-10-25T17:11:38.950Z,83.11
2022-10-25T17:14:07.003Z,83.13
2022-10-25T17:16:34.654Z,83.17
2022-10-25T17:19:03.951Z,83.00
2022-10-25T17:21:33.368Z,82.71
2022-10-25T17:24:01.242Z,83.01
2022-10-25T17:26:29.134Z,83.29
2022-10-25T17:29:00.916Z,83.38
2022-10-25T17:31:28.793Z,83.18
2022-10-25T17:33:56.919Z,82.95
2022-10-25T17:36:24.610Z,83.14
2022-10-25T17:38:52.778Z,83.06
2022-10-25T17:41:20.586Z,83.38
2022-10-25T17:43:50.033Z,83.16
2022-10-25T17:46:23.495Z,83.40
2022-10-25T17:48:55.516Z,83.48
2022-10-25T17:51:23.699Z,83.53
2022-10-25T17:53:55.742Z,83.33
2022-10-25T17:56:25.685Z,83.29
2022-10-25T17:58:54.353Z,83.65
2022-10-25T18:01:25.487Z,83.75
2022-10-25T18:03:54.765Z,83.51
2022-10-25T18:06:24.683Z,83.76
2022-10-25T18:08:54.774Z,83.41
2022-10-25T18:11:24.700Z,83.27
2022-10-25T18:13:54.219Z,83.77
2022-10-25T18:16:25.767Z,83.92
2022-10-25T18:18:55.787Z,83.89
2022-10-25T18:21:24.385Z,83.72
2022-10-25T18:23:56.535Z,83.79
2022-10-25T18:26:25.158Z,83.53
2022-10-25T18:28:53.247Z,83.75
2022-10-25T18:31:21.189Z,83.97
2022-10-25T18:33:49.083Z,84.17
2022-10-25T18:36:19.419Z,83.97
2022-10-25T18:38:51.285Z,83.87
2022-10-25T18:41:22.017Z,83.87
2022-10-25T18:43:50.315Z,83.66
2022-10-25T18:46:18.325Z,83.66
2022-10-25T18:48:53.313Z,83.86
2022-10-25T18:51:23.109Z,84.05
2022-10-25T18:53:57.650Z,83.95
2022-10-25T18:56:25.977Z,83.96
2022-10-25T18:58:56.790Z,83.93
2022-10-25T19:01:26.101Z,83.85
2022-10-25T19:03:56.448Z,84.09
2022-10-25T19:06:24.587Z,84.07
2022-10-25T19:08:52.338Z,84.11
2022-10-25T19:11:19.987Z,83.92
2022-10-25T19:13:50.538Z,83.88
2022-10-25T19:16:20.948Z,84.05
2022-10-25T19:18:48.766Z,84.42
2022-10-25T19:21:18.470Z,84.54
2022-10-25T19:23:46.953Z,84.53
2022-10-25T19:26:18.419Z,84.58
2022-10-25T19:28:46.435Z,84.32
2022-10-25T19:31:17.139Z,84.26
2022-10-25T19:33:46.948Z,84.43
2022-10-25T19:36:15.633Z,84.56
2022-10-25T19:38:48.778Z,84.44
2022-10-25T19:41:19.605Z,84.44
2022-10-25T19:43:47.845Z,84.10
2022-10-25T19:46:15.823Z,84.45
2022-10-25T19:48:43.585Z,84.77
2022-10-25T19:51:17.027Z,84.74
2022-10-25T19:53:45.610Z,84.73
2022-10-25T19:56:21.340Z,84.66
2022-10-25T19:58:49.969Z,84.37
2022-10-25T20:01:32.089Z,84.58
2022-10-25T20:04:00.798Z,85.05
2022-10-25T20:06:30.937Z,84.95
2022-10-25T20:09:00.384Z,84.94
2022-10-25T20:11:29.434Z,84.92
2022-10-25T20:13:59.173Z,84.74
2022-10-25T20:16:28.650Z,84.85
2022-10-25T20:18:58.374Z,85.19
2022-10-25T20:21:29.715Z,85.44
2022-10-25T20:24:03.376Z,85.21
2022-10-25T20:26:33.882Z,85.12
2022-10-25T20:29:05.122Z,84.72
2022-10-25T20:31:35.030Z,84.62
2022-10-25T20:34:02.850Z,84.89
2022-10-25T20:36:31.171Z,85.42
2022-10-25T20:38:58.927Z,85.59
2022-10-25T20:41:29.214Z,85.47
2022-10-25T20:43:59.891Z,85.18
2022-10-25T20:46:28.544Z,85.16
2022-10-25T20:48:57.694Z,85.36
2022-10-25T20:51:26.024Z,85.60
2022-10-25T20:53:54.187Z,85.82
2022-10-25T20:56:22.995Z,85.49
2022-10-25T20:58:50.660Z,85.51
2022-10-25T21:01:18.440Z,85.29
2022-10-25T21:03:46.130Z,85.21
2022-10-25T21:06:14.492Z,85.49
2022-10-25T21:08:42.271Z,85.79
2022-10-25T21:11:12.133Z,85.77
2022-10-25T21:13:41.207Z,85.77
2022-10-25T21:16:14.211Z,85.53
2022-10-25T21:18:42.907Z,85.52
2022-10-25T21:21:17.857Z,85.23
2022-10-25T21:23:47.162Z,85.34
2022-10-25T21:26:15.306Z,85.59
2022-10-25T21:28:43.002Z,85.95
2022-10-25T21:31:13.364Z,85.91
2022-10-25T21:33:49.652Z,85.91
2022-10-25T21:36:19.891Z,85.83
2022-10-25T21:38:47.922Z,85.59
2022-10-25T21:41:26.381Z,85.56
2022-10-25T21:43:54.895Z,85.93
2022-10-25T21:46:23.958Z,85.85
2022-10-25T21:48:51.697Z,85.73
2022-10-25T21:51:26.804Z,85.41
2022-10-25T21:53:55.221Z,85.44
2022-10-25T21:56:23.568Z,85.24
2022-10-25T21:58:51.382Z,85.43
2022-10-25T22:01:21.646Z,85.58
2022-10-25T22:03:49.532Z,85.81
2022-10-25T22:06:19.381Z,85.53
2022-10-25T22:08:48.177Z,85.43
2022-10-25T22:11:19.108Z,85.23
2022-10-25T22:13:47.608Z,85.00
2022-10-25T22:16:19.348Z,85.09
2022-10-25T22:18:53.716Z,85.34
2022-10-25T22:21:21.725Z,85.39
2022-10-25T22:23:49.797Z,85.31
2022-10-25T22:26:20.694Z,85.21
2022-10-25T22:28:56.879Z,85.03
2022-10-25T22:31:25.825Z,85.27
2022-10-25T22:33:55.362Z,85.70
2022-10-25T22:36:24.156Z,85.55
2022-10-25T22:38:51.792Z,85.36
2022-10-25T22:41:22.567Z,85.28
2022-10-25T22:43:50.669Z,85.32
2022-10-25T22:46:25.374Z,85.65
2022-10-25T22:48:54.831Z,85.86
2022-10-25T22:51:24.098Z,86.00
2022-10-25T22:53:52.154Z,85.96
2022-10-25T22:56:27.630Z,85.72
2022-10-25T22:59:00.313Z,85.52
2022-10-25T23:01:46.169Z,85.35
2022-10-25T23:04:13.941Z,85.75
2022-10-25T23:06:41.665Z,86.04
2022-10-25T23:09:10.551Z,86.06
2022-10-25T23:11:40.657Z,85.74
2022-10-25T23:14:13.385Z,85.71
2022-10-25T23:16:45.393Z,85.67
2022-10-25T23:19:13.031Z,85.68
2022-10-25T23:21:40.634Z,85.76
2022-10-25T23:24:09.646Z,86.11
2022-10-25T23:26:37.530Z,86.18
2022-10-25T23:29:05.643Z,86.12
2022-10-25T23:31:33.352Z,86.02
2022-10-25T23:34:01.227Z,85.92
2022-10-25T23:36:37.490Z,85.88
2022-10-25T23:39:07.828Z,86.10
2022-10-25T23:41:35.995Z,86.18
2022-10-25T23:44:03.789Z,86.04
2022-10-25T23:46:31.393Z,86.06
2022-10-25T23:48:59.090Z,86.25
2022-10-25T23:51:26.801Z,85.98
2022-10-25T23:53:54.372Z,86.17
2022-10-25T23:56:22.118Z,86.36
2022-10-25T23:58:53.575Z,86.40
